sensor_id;sensor_type;location;lat;lon;timestamp;P1;durP1;ratioP1;P2;durP2;ratioP2
5776;SDS011;2914;42.668;23.346;2022-09-04T00:00:08;13.60;;;9.53;;
5776;SDS011;2914;42.668;23.346;2022-09-04T00:05:33;11.53;;;9.90;;
5776;SDS011;2914;42.668;23.346;2022-09-04T00:08:11;11.83;;;10.17;;
5776;SDS011;2914;42.668;23.346;2022-09-04T00:10:47;10.20;;;9.20;;
5776;SDS011;2914;42.668;23.346;2022-09-04T00:13:19;10.17;;;9.17;;
5776;SDS011;2914;42.668;23.346;2022-09-04T00:15:55;10.97;;;9.87;;
5776;SDS011;2914;42.668;23.346;2022-09-04T00:18:27;10.63;;;9.57;;
5776;SDS011;2914;42.668;23.346;2022-09-04T00:20:59;10.30;;;9.33;;
5776;SDS011;2914;42.668;23.346;2022-09-04T00:23:32;12.70;;;8.83;;
5776;SDS011;2914;42.668;23.346;2022-09-04T00:26:05;12.03;;;9.00;;
5776;SDS011;2914;42.668;23.346;2022-09-04T00:28:37;10.60;;;9.57;;
5776;SDS011;2914;42.668;23.346;2022-09-04T00:31:12;17.47;;;9.80;;
5776;SDS011;2914;42.668;23.346;2022-09-04T00:33:46;10.27;;;9.27;;
5776;SDS011;2914;42.668;23.346;2022-09-04T00:36:17;11.97;;;10.83;;
5776;SDS011;2914;42.668;23.346;2022-09-04T00:38:52;11.00;;;9.90;;
5776;SDS011;2914;42.668;23.346;2022-09-04T00:41:38;14.07;;;11.40;;
5776;SDS011;2914;42.668;23.346;2022-09-04T00:44:15;14.27;;;11.90;;
5776;SDS011;2914;42.668;23.346;2022-09-04T00:47:07;14.73;;;11.00;;
5776;SDS011;2914;42.668;23.346;2022-09-04T00:49:55;16.43;;;12.30;;
5776;SDS011;2914;42.668;23.346;2022-09-04T00:53:01;12.07;;;10.97;;
5776;SDS011;2914;42.668;23.346;2022-09-04T00:55:48;18.57;;;11.07;;
5776;SDS011;2914;42.668;23.346;2022-09-04T00:58:38;14.33;;;11.50;;
5776;SDS011;2914;42.668;23.346;2022-09-04T01:01:13;14.43;;;11.20;;
5776;SDS011;2914;42.668;23.346;2022-09-04T01:06:28;20.43;;;10.97;;
5776;SDS011;2914;42.668;23.346;2022-09-04T01:09:10;14.43;;;11.03;;
5776;SDS011;2914;42.668;23.346;2022-09-04T01:11:54;11.70;;;10.60;;
5776;SDS011;2914;42.668;23.346;2022-09-04T01:14:30;12.47;;;10.57;;
5776;SDS011;2914;42.668;23.346;2022-09-04T01:17:10;14.53;;;10.70;;
5776;SDS011;2914;42.668;23.346;2022-09-04T01:19:39;10.93;;;9.37;;
5776;SDS011;2914;42.668;23.346;2022-09-04T01:22:13;12.60;;;11.30;;
5776;SDS011;2914;42.668;23.346;2022-09-04T01:24:57;12.07;;;10.33;;
5776;SDS011;2914;42.668;23.346;2022-09-04T01:27:29;11.17;;;10.07;;
5776;SDS011;2914;42.668;23.346;2022-09-04T01:30:03;13.50;;;9.20;;
5776;SDS011;2914;42.668;23.346;2022-09-04T01:32:38;11.80;;;10.00;;
5776;SDS011;2914;42.668;23.346;2022-09-04T01:35:15;11.90;;;9.50;;
5776;SDS011;2914;42.668;23.346;2022-09-04T01:37:54;13.83;;;9.93;;
5776;SDS011;2914;42.668;23.346;2022-09-04T01:40:32;14.50;;;11.07;;
5776;SDS011;2914;42.668;23.346;2022-09-04T01:43:12;14.53;;;9.10;;
5776;SDS011;2914;42.668;23.346;2022-09-04T01:45:47;18.07;;;9.77;;
5776;SDS011;2914;42.668;23.346;2022-09-04T01:48:26;12.30;;;9.87;;
5776;SDS011;2914;42.668;23.346;2022-09-04T01:50:56;10.63;;;9.53;;
5776;SDS011;2914;42.668;23.346;2022-09-04T01:53:27;20.70;;;10.40;;
5776;SDS011;2914;42.668;23.346;2022-09-04T01:56:01;13.70;;;10.23;;
5776;SDS011;2914;42.668;23.346;2022-09-04T01:58:34;11.30;;;10.03;;
5776;SDS011;2914;42.668;23.346;2022-09-04T02:01:06;11.13;;;9.90;;
5776;SDS011;2914;42.668;23.346;2022-09-04T02:03:40;11.17;;;10.07;;
5776;SDS011;2914;42.668;23.346;2022-09-04T02:06:13;14.57;;;10.17;;
5776;SDS011;2914;42.668;23.346;2022-09-04T02:08:49;11.77;;;9.60;;
5776;SDS011;2914;42.668;23.346;2022-09-04T02:11:25;12.17;;;10.33;;
5776;SDS011;2914;42.668;23.346;2022-09-04T02:14:00;10.97;;;9.87;;
5776;SDS011;2914;42.668;23.346;2022-09-04T02:16:36;21.30;;;10.10;;
5776;SDS011;2914;42.668;23.346;2022-09-04T02:19:16;15.57;;;11.00;;
5776;SDS011;2914;42.668;23.346;2022-09-04T02:21:47;12.83;;;10.37;;
5776;SDS011;2914;42.668;23.346;2022-09-04T02:24:20;12.47;;;9.43;;
5776;SDS011;2914;42.668;23.346;2022-09-04T02:26:54;10.33;;;9.30;;
5776;SDS011;2914;42.668;23.346;2022-09-04T02:29:25;11.90;;;10.47;;
5776;SDS011;2914;42.668;23.346;2022-09-04T02:31:57;12.47;;;9.80;;
5776;SDS011;2914;42.668;23.346;2022-09-04T02:34:30;11.73;;;10.37;;
5776;SDS011;2914;42.668;23.346;2022-09-04T02:37:05;13.37;;;10.00;;
5776;SDS011;2914;42.668;23.346;2022-09-04T02:39:47;12.70;;;10.07;;
5776;SDS011;2914;42.668;23.346;2022-09-04T02:42:22;10.80;;;9.70;;
5776;SDS011;2914;42.668;23.346;2022-09-04T02:44:57;12.20;;;10.57;;
5776;SDS011;2914;42.668;23.346;2022-09-04T02:47:30;15.50;;;9.53;;
5776;SDS011;2914;42.668;23.346;2022-09-04T02:50:07;12.00;;;9.10;;
5776;SDS011;2914;42.668;23.346;2022-09-04T02:52:41;13.53;;;10.23;;
5776;SDS011;2914;42.668;23.346;2022-09-04T02:55:18;12.80;;;9.60;;
5776;SDS011;2914;42.668;23.346;2022-09-04T02:57:53;11.07;;;9.70;;
5776;SDS011;2914;42.668;23.346;2022-09-04T03:00:29;10.23;;;9.30;;
5776;SDS011;2914;42.668;23.346;2022-09-04T03:03:06;13.07;;;9.93;;
5776;SDS011;2914;42.668;23.346;2022-09-04T03:05:38;11.13;;;9.33;;
5776;SDS011;2914;42.668;23.346;2022-09-04T03:08:12;9.97;;;9.07;;
5776;SDS011;2914;42.668;23.346;2022-09-04T03:10:44;13.80;;;10.60;;
5776;SDS011;2914;42.668;23.346;2022-09-04T03:13:17;22.37;;;10.27;;
5776;SDS011;2914;42.668;23.346;2022-09-04T03:15:49;10.03;;;9.00;;
5776;SDS011;2914;42.668;23.346;2022-09-04T03:18:23;13.07;;;9.77;;
5776;SDS011;2914;42.668;23.346;2022-09-04T03:20:56;19.70;;;8.40;;
5776;SDS011;2914;42.668;23.346;2022-09-04T03:23:30;15.20;;;9.83;;
5776;SDS011;2914;42.668;23.346;2022-09-04T03:26:05;12.40;;;9.17;;
5776;SDS011;2914;42.668;23.346;2022-09-04T03:28:45;11.73;;;10.30;;
5776;SDS011;2914;42.668;23.346;2022-09-04T03:31:32;16.83;;;10.17;;
5776;SDS011;2914;42.668;23.346;2022-09-04T03:34:08;13.10;;;11.17;;
5776;SDS011;2914;42.668;23.346;2022-09-04T03:36:46;15.10;;;10.40;;
5776;SDS011;2914;42.668;23.346;2022-09-04T03:39:21;12.13;;;10.40;;
5776;SDS011;2914;42.668;23.346;2022-09-04T03:41:53;15.63;;;10.67;;
5776;SDS011;2914;42.668;23.346;2022-09-04T03:44:29;16.93;;;10.63;;
5776;SDS011;2914;42.668;23.346;2022-09-04T03:47:02;14.03;;;11.60;;
5776;SDS011;2914;42.668;23.346;2022-09-04T03:49:40;14.03;;;11.50;;
5776;SDS011;2914;42.668;23.346;2022-09-04T03:52:13;11.60;;;10.23;;
5776;SDS011;2914;42.668;23.346;2022-09-04T03:54:50;15.93;;;10.90;;
5776;SDS011;2914;42.668;23.346;2022-09-04T03:57:30;16.97;;;9.90;;
5776;SDS011;2914;42.668;23.346;2022-09-04T04:00:07;18.87;;;11.70;;
5776;SDS011;2914;42.668;23.346;2022-09-04T04:05:27;12.90;;;10.37;;
5776;SDS011;2914;42.668;23.346;2022-09-04T04:11:19;18.27;;;11.20;;
5776;SDS011;2914;42.668;23.346;2022-09-04T04:17:02;11.93;;;9.97;;
5776;SDS011;2914;42.668;23.346;2022-09-04T04:19:44;12.20;;;10.67;;
5776;SDS011;2914;42.668;23.346;2022-09-04T04:22:28;15.83;;;11.03;;
5776;SDS011;2914;42.668;23.346;2022-09-04T04:25:20;12.17;;;10.50;;
5776;SDS011;2914;42.668;23.346;2022-09-04T04:28:18;16.80;;;10.47;;
5776;SDS011;2914;42.668;23.346;2022-09-04T04:30:53;23.53;;;10.30;;
5776;SDS011;2914;42.668;23.346;2022-09-04T04:33:30;18.27;;;11.07;;
5776;SDS011;2914;42.668;23.346;2022-09-04T04:36:09;24.47;;;11.10;;
5776;SDS011;2914;42.668;23.346;2022-09-04T04:38:46;31.73;;;11.77;;
5776;SDS011;2914;42.668;23.346;2022-09-04T04:41:37;26.43;;;11.00;;
5776;SDS011;2914;42.668;23.346;2022-09-04T04:44:53;18.63;;;10.60;;
5776;SDS011;2914;42.668;23.346;2022-09-04T04:48:01;31.53;;;12.37;;
5776;SDS011;2914;42.668;23.346;2022-09-04T04:50:39;30.63;;;13.00;;
5776;SDS011;2914;42.668;23.346;2022-09-04T04:53:23;22.83;;;12.60;;
5776;SDS011;2914;42.668;23.346;2022-09-04T04:55:54;17.07;;;12.97;;
5776;SDS011;2914;42.668;23.346;2022-09-04T04:58:26;18.10;;;12.47;;
5776;SDS011;2914;42.668;23.346;2022-09-04T05:01:08;34.27;;;14.13;;
5776;SDS011;2914;42.668;23.346;2022-09-04T05:03:50;18.10;;;13.53;;
5776;SDS011;2914;42.668;23.346;2022-09-04T05:09:01;26.40;;;13.90;;
5776;SDS011;2914;42.668;23.346;2022-09-04T05:11:36;20.57;;;13.63;;
5776;SDS011;2914;42.668;23.346;2022-09-04T05:14:19;34.80;;;14.90;;
5776;SDS011;2914;42.668;23.346;2022-09-04T05:16:55;20.60;;;14.30;;
5776;SDS011;2914;42.668;23.346;2022-09-04T05:19:28;20.57;;;14.20;;
5776;SDS011;2914;42.668;23.346;2022-09-04T05:22:10;17.70;;;12.20;;
5776;SDS011;2914;42.668;23.346;2022-09-04T05:24:44;16.67;;;12.43;;
5776;SDS011;2914;42.668;23.346;2022-09-04T05:27:25;14.73;;;12.03;;
5776;SDS011;2914;42.668;23.346;2022-09-04T05:30:07;14.47;;;11.33;;
5776;SDS011;2914;42.668;23.346;2022-09-04T05:32:38;13.67;;;11.23;;
5776;SDS011;2914;42.668;23.346;2022-09-04T05:35:11;15.50;;;11.53;;
5776;SDS011;2914;42.668;23.346;2022-09-04T05:37:50;12.60;;;11.30;;
5776;SDS011;2914;42.668;23.346;2022-09-04T05:40:25;17.30;;;11.10;;
5776;SDS011;2914;42.668;23.346;2022-09-04T05:43:03;14.10;;;11.67;;
5776;SDS011;2914;42.668;23.346;2022-09-04T05:45:50;12.93;;;10.50;;
5776;SDS011;2914;42.668;23.346;2022-09-04T05:48:23;18.63;;;11.67;;
5776;SDS011;2914;42.668;23.346;2022-09-04T05:51:06;15.70;;;11.37;;
5776;SDS011;2914;42.668;23.346;2022-09-04T05:53:53;11.23;;;10.10;;
5776;SDS011;2914;42.668;23.346;2022-09-04T05:59:36;11.83;;;10.60;;
5776;SDS011;2914;42.668;23.346;2022-09-04T06:02:20;14.20;;;10.67;;
5776;SDS011;2914;42.668;23.346;2022-09-04T06:05:15;12.40;;;11.10;;
5776;SDS011;2914;42.668;23.346;2022-09-04T06:08:02;13.93;;;11.33;;
5776;SDS011;2914;42.668;23.346;2022-09-04T06:10:38;14.70;;;11.50;;
5776;SDS011;2914;42.668;23.346;2022-09-04T06:16:24;13.73;;;12.30;;
5776;SDS011;2914;42.668;23.346;2022-09-04T06:19:13;13.37;;;11.97;;
5776;SDS011;2914;42.668;23.346;2022-09-04T06:21:59;14.93;;;12.63;;
5776;SDS011;2914;42.668;23.346;2022-09-04T06:24:51;13.20;;;11.90;;
5776;SDS011;2914;42.668;23.346;2022-09-04T06:27:30;14.97;;;11.93;;
5776;SDS011;2914;42.668;23.346;2022-09-04T06:30:14;20.03;;;13.43;;
5776;SDS011;2914;42.668;23.346;2022-09-04T06:32:52;28.43;;;13.60;;
5776;SDS011;2914;42.668;23.346;2022-09-04T06:39:03;17.13;;;12.30;;
5776;SDS011;2914;42.668;23.346;2022-09-04T06:41:44;14.00;;;12.57;;
5776;SDS011;2914;42.668;23.346;2022-09-04T06:44:25;18.97;;;14.50;;
5776;SDS011;2914;42.668;23.346;2022-09-04T06:46:55;18.10;;;13.97;;
5776;SDS011;2914;42.668;23.346;2022-09-04T06:49:27;18.70;;;15.60;;
5776;SDS011;2914;42.668;23.346;2022-09-04T06:52:03;50.77;;;16.70;;
5776;SDS011;2914;42.668;23.346;2022-09-04T06:54:42;25.33;;;15.50;;
5776;SDS011;2914;42.668;23.346;2022-09-04T06:57:25;27.70;;;16.47;;
5776;SDS011;2914;42.668;23.346;2022-09-04T07:00:04;20.07;;;15.73;;
5776;SDS011;2914;42.668;23.346;2022-09-04T07:02:42;24.20;;;15.27;;
5776;SDS011;2914;42.668;23.346;2022-09-04T07:05:44;21.80;;;15.27;;
5776;SDS011;2914;42.668;23.346;2022-09-04T07:08:18;21.03;;;14.70;;
5776;SDS011;2914;42.668;23.346;2022-09-04T07:10:51;25.00;;;15.20;;
5776;SDS011;2914;42.668;23.346;2022-09-04T07:13:33;24.90;;;15.23;;
5776;SDS011;2914;42.668;23.346;2022-09-04T07:16:40;17.90;;;14.53;;
5776;SDS011;2914;42.668;23.346;2022-09-04T07:22:29;18.57;;;14.73;;
5776;SDS011;2914;42.668;23.346;2022-09-04T07:25:18;21.97;;;14.70;;
5776;SDS011;2914;42.668;23.346;2022-09-04T07:28:06;24.27;;;13.77;;
5776;SDS011;2914;42.668;23.346;2022-09-04T07:30:57;19.60;;;12.67;;
5776;SDS011;2914;42.668;23.346;2022-09-04T07:33:31;14.07;;;12.57;;
5776;SDS011;2914;42.668;23.346;2022-09-04T07:36:04;15.83;;;12.23;;
5776;SDS011;2914;42.668;23.346;2022-09-04T07:38:37;16.63;;;13.30;;
5776;SDS011;2914;42.668;23.346;2022-09-04T07:41:09;15.33;;;12.30;;
5776;SDS011;2914;42.668;23.346;2022-09-04T07:43:43;14.17;;;12.53;;
5776;SDS011;2914;42.668;23.346;2022-09-04T07:46:29;13.50;;;11.50;;
5776;SDS011;2914;42.668;23.346;2022-09-04T07:49:01;11.20;;;10.07;;
5776;SDS011;2914;42.668;23.346;2022-09-04T07:51:35;12.33;;;10.50;;
5776;SDS011;2914;42.668;23.346;2022-09-04T07:54:19;13.70;;;10.40;;
5776;SDS011;2914;42.668;23.346;2022-09-04T07:57:02;11.90;;;9.70;;
5776;SDS011;2914;42.668;23.346;2022-09-04T08:00:00;14.97;;;10.57;;
5776;SDS011;2914;42.668;23.346;2022-09-04T08:05:45;13.27;;;10.67;;
5776;SDS011;2914;42.668;23.346;2022-09-04T08:08:26;13.70;;;12.00;;
5776;SDS011;2914;42.668;23.346;2022-09-04T08:11:30;13.60;;;11.10;;
5776;SDS011;2914;42.668;23.346;2022-09-04T08:14:17;12.03;;;10.93;;
5776;SDS011;2914;42.668;23.346;2022-09-04T08:16:51;15.00;;;12.30;;
5776;SDS011;2914;42.668;23.346;2022-09-04T08:19:36;12.03;;;10.83;;
5776;SDS011;2914;42.668;23.346;2022-09-04T08:22:10;14.70;;;10.73;;
5776;SDS011;2914;42.668;23.346;2022-09-04T08:24:46;11.40;;;10.30;;
5776;SDS011;2914;42.668;23.346;2022-09-04T08:27:23;14.37;;;12.97;;
5776;SDS011;2914;42.668;23.346;2022-09-04T08:30:04;13.70;;;12.30;;
5776;SDS011;2914;42.668;23.346;2022-09-04T08:32:40;17.50;;;13.90;;
5776;SDS011;2914;42.668;23.346;2022-09-04T08:35:18;18.33;;;14.00;;
5776;SDS011;2914;42.668;23.346;2022-09-04T08:37:57;18.37;;;11.87;;
5776;SDS011;2914;42.668;23.346;2022-09-04T08:40:48;14.83;;;12.40;;
5776;SDS011;2914;42.668;23.346;2022-09-04T08:43:44;14.70;;;12.30;;
5776;SDS011;2914;42.668;23.346;2022-09-04T08:46:49;13.57;;;11.43;;
5776;SDS011;2914;42.668;23.346;2022-09-04T08:49:55;12.53;;;10.27;;
5776;SDS011;2914;42.668;23.346;2022-09-04T08:52:56;11.07;;;9.93;;
5776;SDS011;2914;42.668;23.346;2022-09-04T08:55:42;11.23;;;10.23;;
5776;SDS011;2914;42.668;23.346;2022-09-04T08:58:38;14.03;;;10.10;;
5776;SDS011;2914;42.668;23.346;2022-09-04T09:01:21;8.07;;;7.30;;
5776;SDS011;2914;42.668;23.346;2022-09-04T09:10:52;6.90;;;6.40;;
5776;SDS011;2914;42.668;23.346;2022-09-04T09:13:48;6.97;;;6.17;;
5776;SDS011;2914;42.668;23.346;2022-09-04T09:16:43;7.30;;;6.53;;
5776;SDS011;2914;42.668;23.346;2022-09-04T09:19:20;6.77;;;6.17;;
5776;SDS011;2914;42.668;23.346;2022-09-04T09:22:04;6.93;;;6.33;;
5776;SDS011;2914;42.668;23.346;2022-09-04T09:24:48;8.03;;;6.30;;
5776;SDS011;2914;42.668;23.346;2022-09-04T09:31:15;7.17;;;6.47;;
5776;SDS011;2914;42.668;23.346;2022-09-04T09:34:03;7.10;;;6.50;;
5776;SDS011;2914;42.668;23.346;2022-09-04T09:37:01;6.60;;;6.10;;
5776;SDS011;2914;42.668;23.346;2022-09-04T09:40:06;7.50;;;6.90;;
5776;SDS011;2914;42.668;23.346;2022-09-04T09:46:07;9.90;;;6.83;;
5776;SDS011;2914;42.668;23.346;2022-09-04T09:49:24;8.60;;;7.80;;
5776;SDS011;2914;42.668;23.346;2022-09-04T09:52:20;9.90;;;7.00;;
5776;SDS011;2914;42.668;23.346;2022-09-04T09:58:16;10.40;;;7.27;;
5776;SDS011;2914;42.668;23.346;2022-09-04T10:01:15;6.90;;;6.33;;
5776;SDS011;2914;42.668;23.346;2022-09-04T10:04:01;8.40;;;6.60;;
5776;SDS011;2914;42.668;23.346;2022-09-04T10:06:50;7.50;;;6.90;;
5776;SDS011;2914;42.668;23.346;2022-09-04T10:09:49;7.47;;;6.77;;
5776;SDS011;2914;42.668;23.346;2022-09-04T10:12:35;7.00;;;6.33;;
5776;SDS011;2914;42.668;23.346;2022-09-04T10:15:27;7.27;;;6.67;;
5776;SDS011;2914;42.668;23.346;2022-09-04T10:18:37;10.90;;;6.67;;
5776;SDS011;2914;42.668;23.346;2022-09-04T10:34:21;7.90;;;7.20;;
5776;SDS011;2914;42.668;23.346;2022-09-04T10:37:00;7.80;;;7.20;;
5776;SDS011;2914;42.668;23.346;2022-09-04T10:39:36;7.20;;;6.60;;
5776;SDS011;2914;42.668;23.346;2022-09-04T10:42:28;7.77;;;6.90;;
5776;SDS011;2914;42.668;23.346;2022-09-04T10:45:15;7.10;;;6.47;;
5776;SDS011;2914;42.668;23.346;2022-09-04T10:47:51;8.03;;;7.27;;
5776;SDS011;2914;42.668;23.346;2022-09-04T10:50:52;7.63;;;6.60;;
5776;SDS011;2914;42.668;23.346;2022-09-04T10:53:33;7.60;;;6.90;;
5776;SDS011;2914;42.668;23.346;2022-09-04T10:56:28;7.30;;;6.60;;
5776;SDS011;2914;42.668;23.346;2022-09-04T11:02:10;7.90;;;7.30;;
5776;SDS011;2914;42.668;23.346;2022-09-04T11:05:18;8.50;;;6.40;;
5776;SDS011;2914;42.668;23.346;2022-09-04T11:08:00;7.13;;;6.53;;
5776;SDS011;2914;42.668;23.346;2022-09-04T11:11:18;6.57;;;6.10;;
5776;SDS011;2914;42.668;23.346;2022-09-04T11:13:56;5.93;;;5.53;;
5776;SDS011;2914;42.668;23.346;2022-09-04T11:16:38;6.73;;;6.20;;
5776;SDS011;2914;42.668;23.346;2022-09-04T11:25:50;6.50;;;6.00;;
5776;SDS011;2914;42.668;23.346;2022-09-04T11:47:10;7.10;;;5.80;;
5776;SDS011;2914;42.668;23.346;2022-09-04T11:55:57;8.20;;;5.10;;
5776;SDS011;2914;42.668;23.346;2022-09-04T11:58:47;5.70;;;5.20;;
5776;SDS011;2914;42.668;23.346;2022-09-04T12:01:51;5.80;;;5.30;;
5776;SDS011;2914;42.668;23.346;2022-09-04T12:04:31;6.53;;;4.90;;
5776;SDS011;2914;42.668;23.346;2022-09-04T12:07:23;5.70;;;5.23;;
5776;SDS011;2914;42.668;23.346;2022-09-04T12:10:03;5.53;;;5.13;;
5776;SDS011;2914;42.668;23.346;2022-09-04T12:13:01;5.87;;;5.57;;
5776;SDS011;2914;42.668;23.346;2022-09-04T12:15:58;9.57;;;5.53;;
5776;SDS011;2914;42.668;23.346;2022-09-04T12:21:45;6.23;;;5.73;;
5776;SDS011;2914;42.668;23.346;2022-09-04T12:24:54;7.03;;;5.90;;
5776;SDS011;2914;42.668;23.346;2022-09-04T12:27:46;6.17;;;5.67;;
5776;SDS011;2914;42.668;23.346;2022-09-04T12:30:32;5.87;;;5.43;;
5776;SDS011;2914;42.668;23.346;2022-09-04T12:33:26;5.30;;;5.00;;
5776;SDS011;2914;42.668;23.346;2022-09-04T12:39:14;5.10;;;4.80;;
5776;SDS011;2914;42.668;23.346;2022-09-04T12:41:56;6.23;;;5.60;;
5776;SDS011;2914;42.668;23.346;2022-09-04T12:44:32;5.40;;;5.00;;
5776;SDS011;2914;42.668;23.346;2022-09-04T12:47:11;5.37;;;4.87;;
5776;SDS011;2914;42.668;23.346;2022-09-04T12:49:57;6.00;;;5.13;;
5776;SDS011;2914;42.668;23.346;2022-09-04T12:56:02;4.30;;;4.10;;
5776;SDS011;2914;42.668;23.346;2022-09-04T12:58:40;4.60;;;4.30;;
5776;SDS011;2914;42.668;23.346;2022-09-04T13:01:21;5.03;;;4.73;;
5776;SDS011;2914;42.668;23.346;2022-09-04T13:03:56;5.03;;;4.70;;
5776;SDS011;2914;42.668;23.346;2022-09-04T13:06:29;8.40;;;5.47;;
5776;SDS011;2914;42.668;23.346;2022-09-04T13:09:03;6.20;;;4.43;;
5776;SDS011;2914;42.668;23.346;2022-09-04T13:11:39;5.13;;;4.83;;
5776;SDS011;2914;42.668;23.346;2022-09-04T13:17:48;5.23;;;4.40;;
5776;SDS011;2914;42.668;23.346;2022-09-04T13:20:24;5.10;;;4.63;;
5776;SDS011;2914;42.668;23.346;2022-09-04T13:23:02;4.23;;;4.00;;
5776;SDS011;2914;42.668;23.346;2022-09-04T13:25:37;4.60;;;4.40;;
5776;SDS011;2914;42.668;23.346;2022-09-04T13:28:12;5.50;;;4.60;;
5776;SDS011;2914;42.668;23.346;2022-09-04T13:30:45;5.50;;;5.10;;
5776;SDS011;2914;42.668;23.346;2022-09-04T13:33:18;4.90;;;4.60;;
5776;SDS011;2914;42.668;23.346;2022-09-04T13:35:57;5.20;;;4.90;;
5776;SDS011;2914;42.668;23.346;2022-09-04T13:42:01;3.83;;;3.50;;
5776;SDS011;2914;42.668;23.346;2022-09-04T13:44:58;4.30;;;4.10;;
5776;SDS011;2914;42.668;23.346;2022-09-04T13:47:35;9.00;;;4.00;;
5776;SDS011;2914;42.668;23.346;2022-09-04T13:50:09;7.03;;;4.00;;
5776;SDS011;2914;42.668;23.346;2022-09-04T13:52:43;13.20;;;4.50;;
5776;SDS011;2914;42.668;23.346;2022-09-04T13:55:16;4.10;;;3.80;;
5776;SDS011;2914;42.668;23.346;2022-09-04T13:57:50;4.60;;;3.77;;
5776;SDS011;2914;42.668;23.346;2022-09-04T14:03:02;5.50;;;4.10;;
5776;SDS011;2914;42.668;23.346;2022-09-04T14:05:32;3.80;;;3.60;;
5776;SDS011;2914;42.668;23.346;2022-09-04T14:08:12;4.70;;;3.97;;
5776;SDS011;2914;42.668;23.346;2022-09-04T14:10:56;4.60;;;4.30;;
5776;SDS011;2914;42.668;23.346;2022-09-04T14:13:42;4.13;;;3.93;;
5776;SDS011;2914;42.668;23.346;2022-09-04T14:16:18;4.43;;;4.13;;
5776;SDS011;2914;42.668;23.346;2022-09-04T14:18:58;4.20;;;3.80;;
5776;SDS011;2914;42.668;23.346;2022-09-04T14:21:42;20.97;;;3.90;;
5776;SDS011;2914;42.668;23.346;2022-09-04T14:24:18;3.93;;;3.73;;
5776;SDS011;2914;42.668;23.346;2022-09-04T14:26:57;3.60;;;3.50;;
5776;SDS011;2914;42.668;23.346;2022-09-04T14:29:30;5.97;;;3.87;;
5776;SDS011;2914;42.668;23.346;2022-09-04T14:32:06;4.10;;;3.80;;
5776;SDS011;2914;42.668;23.346;2022-09-04T14:34:40;3.93;;;3.73;;
5776;SDS011;2914;42.668;23.346;2022-09-04T14:37:15;4.20;;;4.00;;
5776;SDS011;2914;42.668;23.346;2022-09-04T14:39:50;4.40;;;4.20;;
5776;SDS011;2914;42.668;23.346;2022-09-04T14:42:25;3.70;;;3.50;;
5776;SDS011;2914;42.668;23.346;2022-09-04T14:45:11;4.80;;;4.50;;
5776;SDS011;2914;42.668;23.346;2022-09-04T14:47:46;4.23;;;3.90;;
5776;SDS011;2914;42.668;23.346;2022-09-04T14:50:21;4.30;;;3.80;;
5776;SDS011;2914;42.668;23.346;2022-09-04T14:52:55;3.80;;;3.60;;
5776;SDS011;2914;42.668;23.346;2022-09-04T14:55:29;3.97;;;3.77;;
5776;SDS011;2914;42.668;23.346;2022-09-04T14:58:02;3.67;;;3.47;;
5776;SDS011;2914;42.668;23.346;2022-09-04T15:00:34;3.40;;;3.30;;
5776;SDS011;2914;42.668;23.346;2022-09-04T15:03:20;4.43;;;4.03;;
5776;SDS011;2914;42.668;23.346;2022-09-04T15:05:51;3.67;;;3.20;;
5776;SDS011;2914;42.668;23.346;2022-09-04T15:08:26;3.23;;;3.13;;
5776;SDS011;2914;42.668;23.346;2022-09-04T15:10:58;3.97;;;3.67;;
5776;SDS011;2914;42.668;23.346;2022-09-04T15:13:50;7.83;;;3.80;;
5776;SDS011;2914;42.668;23.346;2022-09-04T15:16:27;3.40;;;3.30;;
5776;SDS011;2914;42.668;23.346;2022-09-04T15:18:59;4.53;;;3.83;;
5776;SDS011;2914;42.668;23.346;2022-09-04T15:21:37;4.37;;;4.13;;
5776;SDS011;2914;42.668;23.346;2022-09-04T15:24:18;4.03;;;3.83;;
5776;SDS011;2914;42.668;23.346;2022-09-04T15:26:51;4.43;;;4.10;;
5776;SDS011;2914;42.668;23.346;2022-09-04T15:29:22;4.47;;;4.17;;
5776;SDS011;2914;42.668;23.346;2022-09-04T15:31:57;3.73;;;3.53;;
5776;SDS011;2914;42.668;23.346;2022-09-04T15:34:29;4.10;;;3.90;;
5776;SDS011;2914;42.668;23.346;2022-09-04T15:37:08;6.50;;;3.73;;
5776;SDS011;2914;42.668;23.346;2022-09-04T15:39:43;4.17;;;3.40;;
5776;SDS011;2914;42.668;23.346;2022-09-04T15:45:22;4.03;;;3.70;;
5776;SDS011;2914;42.668;23.346;2022-09-04T15:47:55;3.47;;;3.37;;
5776;SDS011;2914;42.668;23.346;2022-09-04T15:50:31;3.70;;;3.43;;
5776;SDS011;2914;42.668;23.346;2022-09-04T15:53:09;4.10;;;3.90;;
5776;SDS011;2914;42.668;23.346;2022-09-04T15:55:41;3.27;;;3.07;;
5776;SDS011;2914;42.668;23.346;2022-09-04T15:58:16;3.73;;;3.53;;
5776;SDS011;2914;42.668;23.346;2022-09-04T16:01:04;3.70;;;3.50;;
5776;SDS011;2914;42.668;23.346;2022-09-04T16:03:42;4.33;;;3.90;;
5776;SDS011;2914;42.668;23.346;2022-09-04T16:06:18;3.83;;;3.70;;
5776;SDS011;2914;42.668;23.346;2022-09-04T16:08:52;4.17;;;3.87;;
5776;SDS011;2914;42.668;23.346;2022-09-04T16:11:25;6.63;;;3.93;;
5776;SDS011;2914;42.668;23.346;2022-09-04T16:13:58;7.43;;;4.10;;
5776;SDS011;2914;42.668;23.346;2022-09-04T16:16:30;4.20;;;3.90;;
5776;SDS011;2914;42.668;23.346;2022-09-04T16:19:05;3.97;;;3.77;;
5776;SDS011;2914;42.668;23.346;2022-09-04T16:21:38;4.17;;;3.90;;
5776;SDS011;2914;42.668;23.346;2022-09-04T16:24:12;5.07;;;3.93;;
5776;SDS011;2914;42.668;23.346;2022-09-04T16:26:45;4.00;;;3.80;;
5776;SDS011;2914;42.668;23.346;2022-09-04T16:29:21;4.73;;;4.43;;
5776;SDS011;2914;42.668;23.346;2022-09-04T16:31:55;4.97;;;4.60;;
5776;SDS011;2914;42.668;23.346;2022-09-04T16:34:26;4.10;;;3.90;;
5776;SDS011;2914;42.668;23.346;2022-09-04T16:36:59;4.93;;;4.47;;
5776;SDS011;2914;42.668;23.346;2022-09-04T16:39:36;4.63;;;4.33;;
5776;SDS011;2914;42.668;23.346;2022-09-04T16:42:20;4.57;;;4.37;;
5776;SDS011;2914;42.668;23.346;2022-09-04T16:44:53;4.40;;;3.60;;
5776;SDS011;2914;42.668;23.346;2022-09-04T16:47:28;3.93;;;3.73;;
5776;SDS011;2914;42.668;23.346;2022-09-04T16:50:04;4.20;;;3.90;;
5776;SDS011;2914;42.668;23.346;2022-09-04T16:52:43;6.27;;;4.10;;
5776;SDS011;2914;42.668;23.346;2022-09-04T16:55:21;4.40;;;4.20;;
5776;SDS011;2914;42.668;23.346;2022-09-04T16:58:03;4.20;;;4.00;;
5776;SDS011;2914;42.668;23.346;2022-09-04T17:00:47;6.70;;;4.20;;
5776;SDS011;2914;42.668;23.346;2022-09-04T17:03:35;6.33;;;3.80;;
5776;SDS011;2914;42.668;23.346;2022-09-04T17:06:08;4.10;;;3.80;;
5776;SDS011;2914;42.668;23.346;2022-09-04T17:08:46;8.03;;;4.37;;
5776;SDS011;2914;42.668;23.346;2022-09-04T17:11:19;6.63;;;4.10;;
5776;SDS011;2914;42.668;23.346;2022-09-04T17:13:53;5.20;;;4.80;;
5776;SDS011;2914;42.668;23.346;2022-09-04T17:16:24;4.77;;;4.47;;
5776;SDS011;2914;42.668;23.346;2022-09-04T17:19:01;5.30;;;4.30;;
5776;SDS011;2914;42.668;23.346;2022-09-04T17:21:33;5.17;;;4.77;;
5776;SDS011;2914;42.668;23.346;2022-09-04T17:24:23;5.40;;;4.70;;
5776;SDS011;2914;42.668;23.346;2022-09-04T17:27:02;6.40;;;5.80;;
5776;SDS011;2914;42.668;23.346;2022-09-04T17:29:33;6.10;;;5.60;;
5776;SDS011;2914;42.668;23.346;2022-09-04T17:32:19;6.20;;;5.63;;
5776;SDS011;2914;42.668;23.346;2022-09-04T17:34:52;6.13;;;5.63;;
5776;SDS011;2914;42.668;23.346;2022-09-04T17:37:24;11.07;;;8.13;;
5776;SDS011;2914;42.668;23.346;2022-09-04T17:39:57;6.40;;;5.80;;
5776;SDS011;2914;42.668;23.346;2022-09-04T17:42:28;11.33;;;5.93;;
5776;SDS011;2914;42.668;23.346;2022-09-04T17:45:02;6.97;;;5.53;;
5776;SDS011;2914;42.668;23.346;2022-09-04T17:47:35;5.93;;;5.40;;
5776;SDS011;2914;42.668;23.346;2022-09-04T17:50:14;9.60;;;5.53;;
5776;SDS011;2914;42.668;23.346;2022-09-04T17:52:55;5.50;;;4.90;;
5776;SDS011;2914;42.668;23.346;2022-09-04T17:55:26;8.83;;;5.33;;
5776;SDS011;2914;42.668;23.346;2022-09-04T17:57:59;6.63;;;5.23;;
5776;SDS011;2914;42.668;23.346;2022-09-04T18:00:31;5.83;;;4.93;;
5776;SDS011;2914;42.668;23.346;2022-09-04T18:03:05;6.00;;;5.60;;